createdAt,value
2018-12-16T00:00:52.076Z,74.60
2018-12-16T00:03:21.117Z,75.30
2018-12-16T00:05:50.378Z,73.40
2018-12-16T00:08:19.635Z,71.00
2018-12-16T00:10:48.871Z,73.50
2018-12-16T00:13:18.012Z,76.30
2018-12-16T00:15:47.147Z,76.30
2018-12-16T00:18:16.216Z,75.50
2018-12-16T00:20:45.336Z,79.60
2018-12-16T00:23:14.387Z,74.60
2018-12-16T00:25:43.628Z,80.30
2018-12-16T00:28:12.886Z,76.70
2018-12-16T00:30:42.024Z,69.40
2018-12-16T00:33:11.235Z,75.50
2018-12-16T00:35:40.438Z,72.30
2018-12-16T00:38:09.480Z,72.70
2018-12-16T00:40:38.564Z,76.60
2018-12-16T00:43:07.604Z,77.40
2018-12-16T00:45:36.872Z,74.40
2018-12-16T00:48:05.996Z,72.20
2018-12-16T00:50:35.112Z,78.50
2018-12-16T00:53:04.188Z,75.90
2018-12-16T00:55:33.446Z,77.40
2018-12-16T00:58:02.594Z,72.70
2018-12-16T01:00:31.636Z,71.40
2018-12-16T01:03:00.670Z,81.20
2018-12-16T01:05:29.715Z,72.20
2018-12-16T01:07:58.994Z,74.80
2018-12-16T01:10:28.216Z,74.60
2018-12-16T01:12:57.448Z,81.10
2018-12-16T01:15:26.536Z,71.60
2018-12-16T01:17:55.864Z,74.60
2018-12-16T01:20:24.912Z,73.30
2018-12-16T01:22:54.056Z,74.60
2018-12-16T01:25:23.152Z,73.10
2018-12-16T01:27:52.228Z,80.30
2018-12-16T01:30:21.279Z,70.90
2018-12-16T01:32:50.318Z,78.50
2018-12-16T01:35:19.588Z,75.90
2018-12-16T01:37:48.695Z,75.80
2018-12-16T01:40:17.933Z,71.60
2018-12-16T01:42:47.116Z,80.10
2018-12-16T01:45:16.320Z,73.60
2018-12-16T01:47:45.506Z,75.30
2018-12-16T01:50:14.655Z,76.30
2018-12-16T01:52:49.966Z,76.40
2018-12-16T01:55:15.019Z,76.00
2018-12-16T01:57:44.354Z,73.60
2018-12-16T02:00:13.628Z,77.40
2018-12-16T02:02:42.836Z,75.40
2018-12-16T02:05:11.996Z,83.60
2018-12-16T02:07:41.046Z,77.40
2018-12-16T02:10:10.941Z,79.30
2018-12-16T02:12:40.013Z,84.20
2018-12-16T02:15:09.951Z,79.60
2018-12-16T02:17:39.448Z,77.60
2018-12-16T02:20:09.054Z,83.60
2018-12-16T02:22:38.532Z,83.10
2018-12-16T02:25:08.255Z,84.90
2018-12-16T02:27:37.331Z,82.60
2018-12-16T02:30:08.824Z,86.50
2018-12-16T02:32:37.973Z,86.50
2018-12-16T02:35:07.345Z,84.60
2018-12-16T02:37:36.467Z,85.20
2018-12-16T02:40:05.908Z,86.10
2018-12-16T02:42:34.971Z,83.00
2018-12-16T02:45:04.316Z,81.70
2018-12-16T02:47:34.073Z,87.20
2018-12-16T02:50:03.327Z,78.40
2018-12-16T02:52:32.467Z,83.20
2018-12-16T02:55:01.936Z,85.30
2018-12-16T02:57:32.916Z,88.30
2018-12-16T03:00:01.965Z,85.30
2018-12-16T03:02:32.124Z,85.80
2018-12-16T03:05:01.258Z,85.20
2018-12-16T03:07:30.328Z,83.90
2018-12-16T03:09:59.470Z,84.80
2018-12-16T03:12:28.605Z,83.70
2018-12-16T03:14:57.637Z,88.60
2018-12-16T03:17:26.692Z,90.60
2018-12-16T03:19:55.859Z,81.50
2018-12-16T03:22:24.891Z,86.70
2018-12-16T03:24:53.986Z,88.00
2018-12-16T03:27:23.116Z,84.30
2018-12-16T03:29:52.287Z,83.80
2018-12-16T03:32:21.531Z,90.50
2018-12-16T03:34:50.725Z,89.40
2018-12-16T03:37:19.799Z,87.70
2018-12-16T03:39:48.868Z,84.10
2018-12-16T03:42:18.000Z,84.60
2018-12-16T03:44:47.151Z,90.20
2018-12-16T03:47:16.288Z,85.50
2018-12-16T03:49:45.561Z,88.40
2018-12-16T03:52:15.295Z,87.00
2018-12-16T03:54:44.507Z,88.30
2018-12-16T03:57:13.580Z,90.40
2018-12-16T03:59:42.800Z,90.10
2018-12-16T04:02:12.188Z,88.70
2018-12-16T04:04:41.401Z,88.80
2018-12-16T04:07:10.600Z,89.60
2018-12-16T04:09:39.732Z,87.50
2018-12-16T04:12:08.969Z,90.00
2018-12-16T04:14:38.132Z,84.80
2018-12-16T04:17:07.376Z,86.40
2018-12-16T04:19:36.536Z,85.50
2018-12-16T04:22:05.655Z,87.50
2018-12-16T04:24:34.980Z,85.50
2018-12-16T04:27:04.279Z,87.10
2018-12-16T04:29:33.790Z,90.20
2018-12-16T04:32:03.169Z,85.90
2018-12-16T04:34:32.343Z,88.00
2018-12-16T04:37:01.765Z,88.30
2018-12-16T04:39:31.295Z,90.50
2018-12-16T04:42:00.780Z,90.80
2018-12-16T04:44:29.837Z,90.70
2018-12-16T04:46:58.969Z,89.50
2018-12-16T04:49:28.787Z,88.80
2018-12-16T04:51:57.975Z,86.70
2018-12-16T04:54:27.034Z,85.50
2018-12-16T04:56:56.173Z,90.20
2018-12-16T04:59:25.377Z,90.40
2018-12-16T05:01:54.580Z,90.10
2018-12-16T05:04:23.654Z,87.10
2018-12-16T05:06:52.912Z,91.10
2018-12-16T05:09:22.467Z,90.80
2018-12-16T05:11:51.631Z,91.10
2018-12-16T05:14:20.640Z,91.10
2018-12-16T05:16:49.817Z,90.10
2018-12-16T05:19:19.043Z,91.00
2018-12-16T05:21:48.255Z,92.00
2018-12-16T05:24:17.487Z,90.90
2018-12-16T05:26:46.607Z,91.00
2018-12-16T05:29:15.728Z,89.70
2018-12-16T05:31:44.883Z,91.90
2018-12-16T05:34:14.038Z,91.50
2018-12-16T05:36:43.168Z,90.40
2018-12-16T05:39:12.410Z,91.90
2018-12-16T05:41:41.577Z,91.30
2018-12-16T05:44:10.728Z,90.80
2018-12-16T05:46:39.874Z,91.50
2018-12-16T05:49:09.616Z,86.90
2018-12-16T05:51:38.660Z,90.90
2018-12-16T05:54:07.788Z,90.70
2018-12-16T05:56:37.020Z,91.00
2018-12-16T05:59:06.420Z,91.10
2018-12-16T06:01:35.669Z,91.50
2018-12-16T06:04:04.727Z,91.00
2018-12-16T06:06:33.906Z,89.70
2018-12-16T06:09:03.427Z,86.50
2018-12-16T06:11:32.451Z,90.10
2018-12-16T06:14:01.572Z,91.10
2018-12-16T06:16:30.632Z,91.70
2018-12-16T06:18:59.795Z,88.90
2018-12-16T06:21:28.863Z,86.20
2018-12-16T06:23:58.024Z,87.30
2018-12-16T06:26:27.160Z,87.80
2018-12-16T06:28:56.428Z,90.10
2018-12-16T06:31:25.555Z,90.50
2018-12-16T06:33:54.608Z,91.70
2018-12-16T06:36:23.748Z,88.70
2018-12-16T06:38:52.916Z,86.70
2018-12-16T06:41:22.031Z,90.40
2018-12-16T06:43:51.191Z,88.40
2018-12-16T06:46:20.228Z,86.60
2018-12-16T06:48:49.284Z,89.30
2018-12-16T06:51:18.513Z,90.40
2018-12-16T06:53:47.733Z,88.40
2018-12-16T06:56:17.020Z,91.30
2018-12-16T06:58:46.060Z,91.30
2018-12-16T07:01:16.280Z,87.20
2018-12-16T07:03:45.296Z,90.40
2018-12-16T07:06:14.303Z,86.50
2018-12-16T07:08:43.364Z,87.20
2018-12-16T07:11:13.051Z,84.30
2018-12-16T07:13:42.119Z,86.20
2018-12-16T07:16:11.432Z,88.80
2018-12-16T07:18:40.460Z,87.20
2018-12-16T07:21:09.597Z,87.90
2018-12-16T07:23:38.835Z,88.90
2018-12-16T07:26:08.026Z,83.30
2018-12-16T07:28:37.178Z,89.10
2018-12-16T07:31:06.388Z,81.80
2018-12-16T07:33:36.008Z,84.30
2018-12-16T07:36:05.277Z,86.50
2018-12-16T07:38:34.464Z,88.80
2018-12-16T07:41:03.552Z,87.30
2018-12-16T07:43:32.712Z,82.20
2018-12-16T07:46:01.895Z,86.80
2018-12-16T07:48:31.140Z,90.00
2018-12-16T07:51:00.568Z,89.90
2018-12-16T07:53:29.873Z,86.20
2018-12-16T07:55:59.143Z,89.40
2018-12-16T07:58:28.176Z,87.00
2018-12-16T08:00:57.490Z,86.50
2018-12-16T08:03:26.882Z,89.90
2018-12-16T08:05:55.936Z,90.00
2018-12-16T08:08:25.075Z,85.20
2018-12-16T08:10:54.688Z,86.60
2018-12-16T08:13:23.769Z,85.60
2018-12-16T08:15:53.579Z,82.60
2018-12-16T08:18:22.895Z,86.40
2018-12-16T08:20:52.052Z,85.50
2018-12-16T08:23:21.057Z,90.00
2018-12-16T08:25:50.922Z,82.60
2018-12-16T08:28:19.969Z,84.20
2018-12-16T08:30:49.072Z,90.40
2018-12-16T08:33:18.180Z,85.20
2018-12-16T08:35:47.483Z,85.10
2018-12-16T08:38:16.676Z,82.30
2018-12-16T08:40:45.815Z,82.20
2018-12-16T08:43:14.861Z,81.00
2018-12-16T08:45:43.954Z,83.80
2018-12-16T08:48:13.349Z,85.20
2018-12-16T08:50:42.607Z,87.70
2018-12-16T08:53:11.768Z,89.10
2018-12-16T08:55:40.916Z,90.70
2018-12-16T08:58:10.323Z,87.50
2018-12-16T09:00:39.573Z,88.40
2018-12-16T09:03:11.240Z,88.30
2018-12-16T09:05:40.743Z,89.10
2018-12-16T09:08:09.819Z,89.60
2018-12-16T09:10:39.065Z,83.80
2018-12-16T09:13:08.466Z,83.80
2018-12-16T09:15:38.127Z,84.20
2018-12-16T09:18:09.441Z,86.30
2018-12-16T09:20:38.689Z,81.70
2018-12-16T09:23:07.899Z,81.00
2018-12-16T09:25:37.770Z,75.30
2018-12-16T09:28:07.071Z,78.00
2018-12-16T09:30:36.115Z,76.60
2018-12-16T09:33:05.280Z,80.10
2018-12-16T09:35:34.617Z,83.60
2018-12-16T09:38:04.523Z,80.20
2018-12-16T09:40:33.614Z,82.50
2018-12-16T09:43:02.743Z,82.10
2018-12-16T09:45:31.912Z,84.80
2018-12-16T09:48:01.826Z,86.30
2018-12-16T09:50:31.129Z,87.10
2018-12-16T09:53:00.641Z,90.80
2018-12-16T09:55:29.935Z,85.60
2018-12-16T09:57:59.036Z,85.90
2018-12-16T10:00:28.318Z,85.50
2018-12-16T10:02:59.340Z,85.20
2018-12-16T10:05:28.456Z,88.00
2018-12-16T10:07:57.512Z,82.40
2018-12-16T10:10:26.956Z,81.00
2018-12-16T10:12:56.631Z,79.40
2018-12-16T10:15:25.967Z,84.90
2018-12-16T10:17:55.119Z,87.90
2018-12-16T10:20:24.751Z,90.10
2018-12-16T10:22:53.920Z,88.50
2018-12-16T10:25:23.204Z,90.20
2018-12-16T10:27:52.736Z,88.20
2018-12-16T10:30:22.575Z,90.80
2018-12-16T10:32:51.980Z,84.30
2018-12-16T10:35:21.288Z,83.00
2018-12-16T10:37:50.570Z,81.70
2018-12-16T10:40:20.787Z,89.00
2018-12-16T10:42:49.969Z,88.30
2018-12-16T10:45:19.214Z,84.00
2018-12-16T10:47:49.160Z,78.10
2018-12-16T10:50:18.287Z,84.40
2018-12-16T10:52:47.618Z,87.40
2018-12-16T10:55:16.872Z,86.80
2018-12-16T10:57:46.314Z,84.50
2018-12-16T11:00:21.120Z,88.70
2018-12-16T11:02:50.776Z,83.30
2018-12-16T11:05:20.952Z,85.80
2018-12-16T11:07:50.155Z,88.10
2018-12-16T11:10:19.459Z,86.60
2018-12-16T11:12:49.008Z,90.30
2018-12-16T11:15:18.349Z,86.30
2018-12-16T11:17:47.682Z,84.70
2018-12-16T11:20:16.759Z,83.10
2018-12-16T11:22:46.062Z,86.00
2018-12-16T11:25:17.061Z,85.80
2018-12-16T11:27:46.523Z,88.30
2018-12-16T11:30:15.973Z,82.60
2018-12-16T11:32:45.312Z,85.90
2018-12-16T11:35:14.621Z,89.60
2018-12-16T11:37:43.821Z,90.20
2018-12-16T11:40:12.973Z,90.30
2018-12-16T11:42:42.308Z,86.30
2018-12-16T11:45:11.343Z,86.80
2018-12-16T11:47:40.432Z,87.10
2018-12-16T11:50:10.214Z,84.50
2018-12-16T11:52:39.421Z,85.80
2018-12-16T11:55:12.800Z,83.10
2018-12-16T11:57:40.817Z,83.70
2018-12-16T12:00:10.584Z,81.20
2018-12-16T12:02:39.674Z,80.10
2018-12-16T12:05:08.942Z,83.80
2018-12-16T12:07:38.402Z,81.90
2018-12-16T12:10:08.552Z,83.50
2018-12-16T12:12:37.684Z,81.60
2018-12-16T12:15:07.280Z,86.50
2018-12-16T12:17:36.592Z,86.40
2018-12-16T12:20:06.596Z,86.70
2018-12-16T12:22:36.015Z,83.30
2018-12-16T12:25:06.338Z,81.70
2018-12-16T12:27:35.235Z,81.60
2018-12-16T12:30:05.339Z,83.50
2018-12-16T12:32:34.691Z,83.60
2018-12-16T12:35:04.244Z,81.70
2018-12-16T12:37:35.229Z,77.70
2018-12-16T12:40:05.511Z,77.10
2018-12-16T12:42:34.685Z,80.00
2018-12-16T12:45:04.117Z,76.90
2018-12-16T12:47:33.554Z,79.40
2018-12-16T12:50:02.812Z,88.60
2018-12-16T12:52:32.119Z,84.90
2018-12-16T12:55:01.429Z,89.20
2018-12-16T12:57:31.437Z,86.50
2018-12-16T13:00:01.525Z,83.80
2018-12-16T13:02:31.107Z,82.60
2018-12-16T13:05:00.352Z,86.10
2018-12-16T13:07:30.024Z,88.20
2018-12-16T13:09:59.363Z,89.90
2018-12-16T13:12:29.318Z,87.40
2018-12-16T13:14:58.458Z,90.20
2018-12-16T13:17:28.145Z,90.00
2018-12-16T13:19:57.255Z,88.40
2018-12-16T13:22:26.538Z,84.40
2018-12-16T13:26:08.868Z,81.60
2018-12-16T13:28:37.956Z,82.40
2018-12-16T13:31:07.283Z,86.40
2018-12-16T13:33:37.618Z,90.20
2018-12-16T13:36:09.973Z,90.80
2018-12-16T13:38:39.148Z,90.00
2018-12-16T13:41:08.562Z,91.40
2018-12-16T13:43:37.828Z,91.50
2018-12-16T13:46:06.952Z,91.60
2018-12-16T13:48:36.072Z,90.80
2018-12-16T13:51:05.278Z,91.00
2018-12-16T13:53:34.404Z,90.20
2018-12-16T13:56:03.574Z,88.30
2018-12-16T13:58:32.736Z,90.20
2018-12-16T14:01:01.840Z,91.10
2018-12-16T14:03:30.995Z,91.90
2018-12-16T14:06:00.200Z,91.60
2018-12-16T14:08:29.296Z,88.20
2018-12-16T14:10:58.424Z,87.20
2018-12-16T14:13:27.505Z,83.80
2018-12-16T14:15:56.936Z,84.40
2018-12-16T14:18:26.129Z,83.00
2018-12-16T14:20:55.288Z,83.40
2018-12-16T14:23:24.467Z,87.00
2018-12-16T14:25:53.703Z,88.00
2018-12-16T14:28:23.132Z,87.90
2018-12-16T14:30:52.311Z,89.10
2018-12-16T14:33:21.517Z,90.80
2018-12-16T14:35:50.686Z,87.60
2018-12-16T14:38:20.344Z,85.80
2018-12-16T14:40:49.407Z,85.00
2018-12-16T14:43:18.715Z,86.70
2018-12-16T14:45:47.750Z,84.70
2018-12-16T14:48:17.081Z,84.80
2018-12-16T14:50:46.479Z,82.60
2018-12-16T14:53:16.539Z,80.70
2018-12-16T14:55:45.675Z,84.10
2018-12-16T14:58:14.555Z,80.60
2018-12-16T15:00:43.464Z,81.20
2018-12-16T15:03:13.148Z,80.80
2018-12-16T15:05:42.652Z,79.00
2018-12-16T15:08:12.432Z,77.40
2018-12-16T15:10:41.532Z,81.50
2018-12-16T15:13:10.756Z,79.40
2018-12-16T15:15:39.816Z,81.40
2018-12-16T15:18:08.869Z,84.00
2018-12-16T15:20:37.901Z,86.80
2018-12-16T15:23:07.660Z,86.10
2018-12-16T15:25:37.044Z,81.80
2018-12-16T15:28:06.473Z,85.70
2018-12-16T15:30:35.773Z,85.70
2018-12-16T15:33:05.059Z,82.10
2018-12-16T15:35:34.561Z,87.20
2018-12-16T15:38:03.875Z,85.20
2018-12-16T15:40:33.197Z,80.40
2018-12-16T15:43:02.255Z,82.90
2018-12-16T15:45:31.310Z,79.70
2018-12-16T15:48:00.436Z,82.50
2018-12-16T15:50:29.842Z,82.20
2018-12-16T15:52:59.331Z,80.30
2018-12-16T15:55:28.768Z,79.30
2018-12-16T15:57:58.256Z,76.80
2018-12-16T16:00:27.631Z,80.60
2018-12-16T16:02:56.668Z,81.20
2018-12-16T16:05:25.750Z,83.00
2018-12-16T16:07:54.962Z,80.70
2018-12-16T16:10:24.115Z,79.30
2018-12-16T16:12:53.416Z,78.10
2018-12-16T16:15:22.542Z,78.30
2018-12-16T16:17:53.306Z,78.50
2018-12-16T16:20:22.792Z,77.50
2018-12-16T16:22:52.004Z,83.50
2018-12-16T16:25:21.173Z,83.20
2018-12-16T16:27:50.199Z,81.70
2018-12-16T16:30:19.471Z,82.50
2018-12-16T16:32:48.612Z,78.30
2018-12-16T16:35:17.763Z,79.50
2018-12-16T16:37:47.029Z,83.00
2018-12-16T16:40:16.311Z,86.70
2018-12-16T16:42:45.572Z,85.10
2018-12-16T16:45:14.868Z,85.50
2018-12-16T16:47:43.911Z,87.30
2018-12-16T16:50:13.343Z,87.50
2018-12-16T16:52:42.506Z,88.50
2018-12-16T16:55:11.744Z,90.00
2018-12-16T16:57:40.793Z,86.60
2018-12-16T17:00:10.539Z,86.70
2018-12-16T17:02:39.703Z,85.80
2018-12-16T17:05:09.259Z,85.30
2018-12-16T17:07:38.512Z,85.00
2018-12-16T17:10:09.093Z,85.90
2018-12-16T17:12:39.389Z,86.50
2018-12-16T17:15:09.133Z,82.90
2018-12-16T17:17:38.828Z,83.20
2018-12-16T17:20:08.953Z,85.40
2018-12-16T17:22:38.665Z,85.00
2018-12-16T17:25:07.966Z,80.50
2018-12-16T17:27:37.170Z,79.90
2018-12-16T17:30:08.500Z,80.20
2018-12-16T17:32:37.556Z,78.50
2018-12-16T17:35:07.008Z,76.90
2018-12-16T17:37:36.051Z,80.20
2018-12-16T17:40:06.000Z,81.10
2018-12-16T17:42:36.925Z,81.80
2018-12-16T17:45:07.042Z,85.60
2018-12-16T17:47:36.231Z,83.60
2018-12-16T17:50:05.964Z,83.80
2018-12-16T17:52:35.168Z,87.60
2018-12-16T17:55:05.101Z,82.50
2018-12-16T17:57:34.253Z,83.30
2018-12-16T18:00:03.804Z,83.00
2018-12-16T18:02:32.980Z,82.10
2018-12-16T18:05:02.129Z,80.40
2018-12-16T18:07:31.124Z,82.90
2018-12-16T18:10:00.128Z,79.30
2018-12-16T18:12:29.566Z,82.50
2018-12-16T18:14:58.611Z,83.20
2018-12-16T18:17:27.753Z,85.80
2018-12-16T18:19:56.849Z,87.50
2018-12-16T18:22:26.032Z,89.40
2018-12-16T18:24:55.245Z,86.50
2018-12-16T18:27:24.434Z,86.00
2018-12-16T18:29:53.650Z,85.40
2018-12-16T18:32:22.836Z,84.10
2018-12-16T18:34:52.042Z,80.70
2018-12-16T18:37:21.241Z,82.10
2018-12-16T18:39:50.381Z,80.00
2018-12-16T18:42:19.872Z,77.20
2018-12-16T18:44:48.968Z,76.90
2018-12-16T18:47:17.993Z,76.30
2018-12-16T18:49:47.156Z,77.80
2018-12-16T18:52:16.293Z,77.10
2018-12-16T18:54:45.444Z,75.10
2018-12-16T18:57:14.725Z,79.80
2018-12-16T18:59:43.959Z,79.70
2018-12-16T19:02:13.193Z,79.80
2018-12-16T19:04:42.399Z,80.50
2018-12-16T19:07:12.412Z,77.80
2018-12-16T19:09:41.703Z,82.70
2018-12-16T19:12:10.916Z,83.10
2018-12-16T19:14:40.568Z,80.90
2018-12-16T19:17:09.992Z,82.30
2018-12-16T19:19:39.415Z,83.10
2018-12-16T19:22:08.567Z,81.50
2018-12-16T19:24:37.819Z,78.50
2018-12-16T19:27:07.666Z,79.60
2018-12-16T19:29:37.630Z,82.20
2018-12-16T19:32:06.644Z,83.30
2018-12-16T19:34:36.540Z,85.40
2018-12-16T19:37:05.812Z,88.30
2018-12-16T19:39:35.035Z,88.40
2018-12-16T19:42:04.204Z,85.40
2018-12-16T19:44:33.260Z,84.30
2018-12-16T19:47:02.291Z,84.10
2018-12-16T19:49:31.276Z,82.80
2018-12-16T19:52:01.072Z,83.30
2018-12-16T19:54:30.135Z,83.70
2018-12-16T19:57:04.933Z,80.60
2018-12-16T19:59:30.482Z,83.60
2018-12-16T20:01:59.529Z,83.70
2018-12-16T20:04:33.862Z,84.50
2018-12-16T20:07:02.951Z,81.40
2018-12-16T20:09:32.274Z,78.20
2018-12-16T20:12:01.581Z,79.10
2018-12-16T20:14:31.012Z,80.30
2018-12-16T20:17:00.139Z,83.80
2018-12-16T20:19:32.095Z,85.70
2018-12-16T20:22:01.400Z,82.60
2018-12-16T20:24:30.643Z,85.20
2018-12-16T20:26:59.696Z,83.20
2018-12-16T20:29:28.811Z,82.10
2018-12-16T20:31:57.869Z,81.40
2018-12-16T20:34:30.055Z,84.40
2018-12-16T20:36:59.342Z,83.80
2018-12-16T20:39:35.842Z,86.50
2018-12-16T20:42:05.111Z,83.10
2018-12-16T20:44:42.643Z,82.30
2018-12-16T20:47:11.846Z,82.90
2018-12-16T20:49:41.331Z,83.50
2018-12-16T20:52:13.201Z,85.30
2018-12-16T20:54:48.521Z,84.00
2018-12-16T20:57:19.046Z,85.60
2018-12-16T20:59:48.528Z,87.70
2018-12-16T21:02:17.672Z,84.60
2018-12-16T21:04:46.792Z,82.30
2018-12-16T21:07:15.920Z,82.30
2018-12-16T21:09:45.063Z,82.60
2018-12-16T21:12:19.254Z,83.50
2018-12-16T21:14:53.497Z,81.70
2018-12-16T21:17:27.544Z,83.30
2018-12-16T21:19:56.840Z,80.50
2018-12-16T21:22:25.919Z,81.60
2018-12-16T21:24:55.107Z,83.10
2018-12-16T21:27:26.043Z,90.00
2018-12-16T21:29:55.690Z,87.20
2018-12-16T21:32:24.877Z,88.30
2018-12-16T21:34:54.089Z,85.10
2018-12-16T21:37:23.149Z,86.90
2018-12-16T21:39:52.388Z,88.30
2018-12-16T21:42:21.558Z,89.90
2018-12-16T21:44:50.720Z,85.70
2018-12-16T21:47:19.840Z,85.90
2018-12-16T21:49:49.434Z,88.50
2018-12-16T21:52:18.882Z,85.80
2018-12-16T21:54:48.071Z,83.50
2018-12-16T21:57:17.347Z,81.00
2018-12-16T21:59:46.679Z,82.00
2018-12-16T22:02:15.755Z,84.70
2018-12-16T22:04:45.068Z,82.80
2018-12-16T22:07:15.138Z,86.80
2018-12-16T22:09:44.124Z,89.70
2018-12-16T22:12:13.281Z,90.00
2018-12-16T22:14:42.310Z,87.20
2018-12-16T22:17:11.437Z,86.00
2018-12-16T22:19:40.545Z,82.80
2018-12-16T22:22:09.702Z,83.00
2018-12-16T22:24:39.134Z,84.40
2018-12-16T22:27:08.513Z,83.60
2018-12-16T22:29:37.738Z,85.00
2018-12-16T22:32:06.785Z,83.60
2018-12-16T22:34:36.045Z,82.70
2018-12-16T22:37:05.600Z,85.20
2018-12-16T22:39:34.731Z,89.80
2018-12-16T22:42:04.100Z,88.00
2018-12-16T22:44:33.124Z,85.20
2018-12-16T22:47:02.440Z,86.50
2018-12-16T22:49:31.567Z,83.70
2018-12-16T22:52:00.835Z,84.50
2018-12-16T22:54:30.236Z,84.80
2018-12-16T22:56:59.372Z,87.20
2018-12-16T22:59:28.396Z,88.70
2018-12-16T23:01:57.583Z,89.20
2018-12-16T23:04:26.584Z,90.10
2018-12-16T23:06:55.816Z,88.00
2018-12-16T23:09:31.440Z,87.60
2018-12-16T23:12:00.558Z,88.00
2018-12-16T23:14:29.729Z,85.00
2018-12-16T23:16:58.887Z,85.40
2018-12-16T23:19:27.941Z,86.50
2018-12-16T23:21:57.092Z,85.90
2018-12-16T23:24:26.955Z,84.60
2018-12-16T23:26:56.005Z,88.40
2018-12-16T23:29:25.231Z,87.40
2018-12-16T23:31:54.397Z,86.30
2018-12-16T23:34:23.718Z,87.50
2018-12-16T23:36:52.896Z,85.00
2018-12-16T23:39:22.015Z,84.30
2018-12-16T23:41:51.431Z,81.40
2018-12-16T23:44:20.521Z,81.70
2018-12-16T23:46:49.572Z,83.60
2018-12-16T23:49:18.596Z,84.70
2018-12-16T23:51:47.888Z,85.30
2018-12-16T23:54:16.955Z,84.60
2018-12-16T23:56:45.994Z,86.60
2018-12-16T23:59:15.306Z,86.60
